sensor_id;sensor_type;location;lat;lon;timestamp;temperature;humidity
59075;DHT22;44860;53.020;6.738;2023-01-09T00:00:40;6.70;99.90
59075;DHT22;44860;53.020;6.738;2023-01-09T00:03:06;6.70;99.90
59075;DHT22;44860;53.020;6.738;2023-01-09T00:05:32;6.70;99.90
59075;DHT22;44860;53.020;6.738;2023-01-09T00:07:57;6.80;99.90
59075;DHT22;44860;53.020;6.738;2023-01-09T00:10:23;6.80;99.90
59075;DHT22;44860;53.020;6.738;2023-01-09T00:12:49;6.80;99.90
59075;DHT22;44860;53.020;6.738;2023-01-09T00:15:15;6.90;99.90
59075;DHT22;44860;53.020;6.738;2023-01-09T00:17:41;6.90;99.90
59075;DHT22;44860;53.020;6.738;2023-01-09T00:20:07;6.90;99.90
59075;DHT22;44860;53.020;6.738;2023-01-09T00:22:35;7.00;99.90
59075;DHT22;44860;53.020;6.738;2023-01-09T00:25:01;7.00;99.90
59075;DHT22;44860;53.020;6.738;2023-01-09T00:27:30;7.10;99.90
59075;DHT22;44860;53.020;6.738;2023-01-09T00:29:57;7.10;99.90
59075;DHT22;44860;53.020;6.738;2023-01-09T00:32:23;7.20;99.90
59075;DHT22;44860;53.020;6.738;2023-01-09T00:34:48;7.20;99.90
59075;DHT22;44860;53.020;6.738;2023-01-09T00:37:14;7.30;99.90
59075;DHT22;44860;53.020;6.738;2023-01-09T00:39:41;7.40;99.90
59075;DHT22;44860;53.020;6.738;2023-01-09T00:42:10;7.40;99.90
59075;DHT22;44860;53.020;6.738;2023-01-09T00:44:40;7.50;99.90
59075;DHT22;44860;53.020;6.738;2023-01-09T00:47:11;7.60;99.90
59075;DHT22;44860;53.020;6.738;2023-01-09T00:49:40;7.60;99.90
59075;DHT22;44860;53.020;6.738;2023-01-09T00:52:08;7.60;99.90
59075;DHT22;44860;53.020;6.738;2023-01-09T00:54:34;7.60;99.90
59075;DHT22;44860;53.020;6.738;2023-01-09T00:57:00;7.60;99.90
59075;DHT22;44860;53.020;6.738;2023-01-09T00:59:26;7.60;99.90
59075;DHT22;44860;53.020;6.738;2023-01-09T01:01:52;7.60;99.90
59075;DHT22;44860;53.020;6.738;2023-01-09T01:04:18;7.60;99.90
59075;DHT22;44860;53.020;6.738;2023-01-09T01:07:02;7.60;99.90
59075;DHT22;44860;53.020;6.738;2023-01-09T01:09:46;7.60;99.90
59075;DHT22;44860;53.020;6.738;2023-01-09T01:12:12;7.50;99.90
59075;DHT22;44860;53.020;6.738;2023-01-09T01:14:38;7.50;99.90
59075;DHT22;44860;53.020;6.738;2023-01-09T01:17:05;7.50;99.90
59075;DHT22;44860;53.020;6.738;2023-01-09T01:19:32;7.50;99.90
59075;DHT22;44860;53.020;6.738;2023-01-09T01:21:58;7.50;99.90
59075;DHT22;44860;53.020;6.738;2023-01-09T01:24:24;7.50;99.90
59075;DHT22;44860;53.020;6.738;2023-01-09T01:26:49;7.40;99.90
59075;DHT22;44860;53.020;6.738;2023-01-09T01:29:15;7.40;99.90
59075;DHT22;44860;53.020;6.738;2023-01-09T01:31:41;7.40;99.90
59075;DHT22;44860;53.020;6.738;2023-01-09T01:34:06;7.40;99.90
59075;DHT22;44860;53.020;6.738;2023-01-09T01:36:33;7.40;99.90
59075;DHT22;44860;53.020;6.738;2023-01-09T01:38:59;7.30;99.90
59075;DHT22;44860;53.020;6.738;2023-01-09T01:41:24;7.30;99.90
59075;DHT22;44860;53.020;6.738;2023-01-09T01:44:05;7.30;99.90
59075;DHT22;44860;53.020;6.738;2023-01-09T01:46:32;7.30;99.90
59075;DHT22;44860;53.020;6.738;2023-01-09T01:49:05;7.20;99.90
59075;DHT22;44860;53.020;6.738;2023-01-09T01:51:36;7.20;99.90
59075;DHT22;44860;53.020;6.738;2023-01-09T01:54:08;7.20;99.90
59075;DHT22;44860;53.020;6.738;2023-01-09T01:56:43;7.20;99.90
59075;DHT22;44860;53.020;6.738;2023-01-09T02:01:49;7.10;99.90
59075;DHT22;44860;53.020;6.738;2023-01-09T02:04:15;7.10;99.90
59075;DHT22;44860;53.020;6.738;2023-01-09T02:06:41;7.10;99.90
59075;DHT22;44860;53.020;6.738;2023-01-09T02:09:08;7.10;99.90
59075;DHT22;44860;53.020;6.738;2023-01-09T02:11:46;7.10;99.90
59075;DHT22;44860;53.020;6.738;2023-01-09T02:14:13;7.10;99.90
59075;DHT22;44860;53.020;6.738;2023-01-09T02:31:20;7.10;99.90
59075;DHT22;44860;53.020;6.738;2023-01-09T02:34:08;7.10;99.90
59075;DHT22;44860;53.020;6.738;2023-01-09T02:37:00;7.10;99.90
59075;DHT22;44860;53.020;6.738;2023-01-09T02:39:49;7.10;99.90
59075;DHT22;44860;53.020;6.738;2023-01-09T02:42:19;7.10;99.90
59075;DHT22;44860;53.020;6.738;2023-01-09T02:44:45;7.10;99.90
59075;DHT22;44860;53.020;6.738;2023-01-09T02:49:42;7.00;99.90
59075;DHT22;44860;53.020;6.738;2023-01-09T03:00:45;7.00;99.90
59075;DHT22;44860;53.020;6.738;2023-01-09T03:03:24;7.00;99.90
59075;DHT22;44860;53.020;6.738;2023-01-09T03:08:49;7.00;99.90
59075;DHT22;44860;53.020;6.738;2023-01-09T03:11:16;6.90;99.90
59075;DHT22;44860;53.020;6.738;2023-01-09T03:13:46;6.90;99.90
59075;DHT22;44860;53.020;6.738;2023-01-09T03:16:19;6.90;99.90
59075;DHT22;44860;53.020;6.738;2023-01-09T03:18:47;6.90;99.90
59075;DHT22;44860;53.020;6.738;2023-01-09T03:21:13;6.90;99.90
59075;DHT22;44860;53.020;6.738;2023-01-09T03:23:54;6.90;99.90
59075;DHT22;44860;53.020;6.738;2023-01-09T03:26:21;6.80;99.90
59075;DHT22;44860;53.020;6.738;2023-01-09T03:28:47;6.80;99.90
59075;DHT22;44860;53.020;6.738;2023-01-09T03:31:13;6.80;99.90
59075;DHT22;44860;53.020;6.738;2023-01-09T03:33:40;6.80;99.90
59075;DHT22;44860;53.020;6.738;2023-01-09T03:36:06;6.80;99.90
59075;DHT22;44860;53.020;6.738;2023-01-09T03:38:32;6.80;99.90
59075;DHT22;44860;53.020;6.738;2023-01-09T03:40:58;6.80;99.90
59075;DHT22;44860;53.020;6.738;2023-01-09T03:43:24;6.70;99.90
59075;DHT22;44860;53.020;6.738;2023-01-09T03:45:49;6.70;99.90
59075;DHT22;44860;53.020;6.738;2023-01-09T03:48:15;6.70;99.90
59075;DHT22;44860;53.020;6.738;2023-01-09T03:50:41;6.70;99.90
59075;DHT22;44860;53.020;6.738;2023-01-09T03:53:12;6.60;99.90
59075;DHT22;44860;53.020;6.738;2023-01-09T03:55:39;6.60;99.90
59075;DHT22;44860;53.020;6.738;2023-01-09T03:58:07;6.60;99.90
59075;DHT22;44860;53.020;6.738;2023-01-09T04:00:33;6.60;99.90
59075;DHT22;44860;53.020;6.738;2023-01-09T04:02:58;6.60;99.90
59075;DHT22;44860;53.020;6.738;2023-01-09T04:05:24;6.50;99.90
59075;DHT22;44860;53.020;6.738;2023-01-09T04:07:50;6.50;99.90
59075;DHT22;44860;53.020;6.738;2023-01-09T04:10:15;6.50;99.90
59075;DHT22;44860;53.020;6.738;2023-01-09T04:12:41;6.40;99.90
59075;DHT22;44860;53.020;6.738;2023-01-09T04:15:08;6.40;99.90
59075;DHT22;44860;53.020;6.738;2023-01-09T04:17:35;6.40;99.90
59075;DHT22;44860;53.020;6.738;2023-01-09T04:20:04;6.30;99.90
59075;DHT22;44860;53.020;6.738;2023-01-09T04:22:34;6.30;99.90
59075;DHT22;44860;53.020;6.738;2023-01-09T04:25:00;6.30;99.90
59075;DHT22;44860;53.020;6.738;2023-01-09T04:27:26;6.30;99.90
59075;DHT22;44860;53.020;6.738;2023-01-09T04:29:51;6.20;99.90
59075;DHT22;44860;53.020;6.738;2023-01-09T04:32:17;6.30;99.90
59075;DHT22;44860;53.020;6.738;2023-01-09T04:34:43;6.20;99.90
59075;DHT22;44860;53.020;6.738;2023-01-09T04:37:09;6.20;99.90
59075;DHT22;44860;53.020;6.738;2023-01-09T04:39:34;6.20;99.90
59075;DHT22;44860;53.020;6.738;2023-01-09T04:42:00;6.20;99.90
59075;DHT22;44860;53.020;6.738;2023-01-09T04:44:26;6.20;99.90
59075;DHT22;44860;53.020;6.738;2023-01-09T04:46:53;6.10;99.90
59075;DHT22;44860;53.020;6.738;2023-01-09T04:49:20;6.10;99.90
59075;DHT22;44860;53.020;6.738;2023-01-09T04:51:46;6.10;99.90
59075;DHT22;44860;53.020;6.738;2023-01-09T04:54:12;6.00;99.90
59075;DHT22;44860;53.020;6.738;2023-01-09T04:56:38;6.00;99.90
59075;DHT22;44860;53.020;6.738;2023-01-09T04:59:07;6.00;99.90
59075;DHT22;44860;53.020;6.738;2023-01-09T05:01:33;6.00;99.90
59075;DHT22;44860;53.020;6.738;2023-01-09T05:04:00;6.00;99.90
59075;DHT22;44860;53.020;6.738;2023-01-09T05:06:25;6.00;99.90
59075;DHT22;44860;53.020;6.738;2023-01-09T05:08:51;6.00;99.90
59075;DHT22;44860;53.020;6.738;2023-01-09T05:11:17;6.00;99.90
59075;DHT22;44860;53.020;6.738;2023-01-09T05:13:43;6.00;99.90
59075;DHT22;44860;53.020;6.738;2023-01-09T05:16:09;5.90;99.90
59075;DHT22;44860;53.020;6.738;2023-01-09T05:18:38;6.00;99.90
59075;DHT22;44860;53.020;6.738;2023-01-09T05:21:04;6.00;99.90
59075;DHT22;44860;53.020;6.738;2023-01-09T05:23:29;5.90;99.90
59075;DHT22;44860;53.020;6.738;2023-01-09T05:25:55;6.00;99.90
59075;DHT22;44860;53.020;6.738;2023-01-09T05:28:21;6.00;99.90
59075;DHT22;44860;53.020;6.738;2023-01-09T05:30:47;6.00;99.90
59075;DHT22;44860;53.020;6.738;2023-01-09T05:33:15;6.00;99.90
59075;DHT22;44860;53.020;6.738;2023-01-09T05:35:41;6.00;99.90
59075;DHT22;44860;53.020;6.738;2023-01-09T05:38:07;5.90;99.90
59075;DHT22;44860;53.020;6.738;2023-01-09T05:40:32;6.00;99.90
59075;DHT22;44860;53.020;6.738;2023-01-09T05:43:01;5.90;99.90
59075;DHT22;44860;53.020;6.738;2023-01-09T05:45:26;5.90;99.90
59075;DHT22;44860;53.020;6.738;2023-01-09T05:47:52;6.00;99.90
59075;DHT22;44860;53.020;6.738;2023-01-09T05:50:18;6.00;99.90
59075;DHT22;44860;53.020;6.738;2023-01-09T05:52:43;6.00;99.90
59075;DHT22;44860;53.020;6.738;2023-01-09T05:55:11;6.00;99.90
59075;DHT22;44860;53.020;6.738;2023-01-09T05:57:37;6.00;99.90
59075;DHT22;44860;53.020;6.738;2023-01-09T06:00:04;6.00;99.90
59075;DHT22;44860;53.020;6.738;2023-01-09T06:02:31;6.00;99.90
59075;DHT22;44860;53.020;6.738;2023-01-09T06:05:16;6.00;99.90
59075;DHT22;44860;53.020;6.738;2023-01-09T06:07:42;6.00;99.90
59075;DHT22;44860;53.020;6.738;2023-01-09T06:10:11;6.10;99.90
59075;DHT22;44860;53.020;6.738;2023-01-09T06:12:39;6.10;99.90
59075;DHT22;44860;53.020;6.738;2023-01-09T06:15:05;6.10;99.90
59075;DHT22;44860;53.020;6.738;2023-01-09T06:17:30;6.10;99.90
59075;DHT22;44860;53.020;6.738;2023-01-09T06:19:56;6.20;99.90
59075;DHT22;44860;53.020;6.738;2023-01-09T06:22:22;6.10;99.90
59075;DHT22;44860;53.020;6.738;2023-01-09T06:24:47;6.20;99.90
59075;DHT22;44860;53.020;6.738;2023-01-09T06:27:13;6.10;99.90
59075;DHT22;44860;53.020;6.738;2023-01-09T06:29:39;6.10;99.90
59075;DHT22;44860;53.020;6.738;2023-01-09T06:32:05;6.10;99.90
59075;DHT22;44860;53.020;6.738;2023-01-09T06:34:31;6.20;99.90
59075;DHT22;44860;53.020;6.738;2023-01-09T06:36:56;6.20;99.90
59075;DHT22;44860;53.020;6.738;2023-01-09T06:39:22;6.20;99.90
59075;DHT22;44860;53.020;6.738;2023-01-09T06:41:47;6.10;99.90
59075;DHT22;44860;53.020;6.738;2023-01-09T06:44:13;6.10;99.90
59075;DHT22;44860;53.020;6.738;2023-01-09T06:46:39;6.10;99.90
59075;DHT22;44860;53.020;6.738;2023-01-09T06:49:05;6.10;99.90
59075;DHT22;44860;53.020;6.738;2023-01-09T06:51:30;6.10;99.90
59075;DHT22;44860;53.020;6.738;2023-01-09T06:53:56;6.10;99.90
59075;DHT22;44860;53.020;6.738;2023-01-09T06:56:22;6.10;99.90
59075;DHT22;44860;53.020;6.738;2023-01-09T06:58:47;6.10;99.90
59075;DHT22;44860;53.020;6.738;2023-01-09T07:01:13;6.10;99.90
59075;DHT22;44860;53.020;6.738;2023-01-09T07:03:39;6.10;99.90
59075;DHT22;44860;53.020;6.738;2023-01-09T07:06:05;6.00;99.90
59075;DHT22;44860;53.020;6.738;2023-01-09T07:08:31;6.10;99.90
59075;DHT22;44860;53.020;6.738;2023-01-09T07:10:56;6.10;99.90
59075;DHT22;44860;53.020;6.738;2023-01-09T07:13:22;6.10;99.90
59075;DHT22;44860;53.020;6.738;2023-01-09T07:15:48;6.10;99.90
59075;DHT22;44860;53.020;6.738;2023-01-09T07:18:14;6.00;99.90
59075;DHT22;44860;53.020;6.738;2023-01-09T07:20:40;6.10;99.90
59075;DHT22;44860;53.020;6.738;2023-01-09T07:23:09;6.00;99.90
59075;DHT22;44860;53.020;6.738;2023-01-09T07:25:35;6.00;99.90
59075;DHT22;44860;53.020;6.738;2023-01-09T07:28:01;6.10;99.90
59075;DHT22;44860;53.020;6.738;2023-01-09T07:30:26;6.00;99.90
59075;DHT22;44860;53.020;6.738;2023-01-09T07:32:52;6.00;99.90
59075;DHT22;44860;53.020;6.738;2023-01-09T07:35:17;6.00;99.90
59075;DHT22;44860;53.020;6.738;2023-01-09T07:37:45;5.90;99.90
59075;DHT22;44860;53.020;6.738;2023-01-09T07:40:11;6.00;99.90
59075;DHT22;44860;53.020;6.738;2023-01-09T07:42:36;5.90;99.90
59075;DHT22;44860;53.020;6.738;2023-01-09T07:45:02;5.90;99.90
59075;DHT22;44860;53.020;6.738;2023-01-09T07:47:28;5.90;99.90
59075;DHT22;44860;53.020;6.738;2023-01-09T07:49:54;5.90;99.90
59075;DHT22;44860;53.020;6.738;2023-01-09T07:52:19;5.80;99.90
59075;DHT22;44860;53.020;6.738;2023-01-09T07:54:45;5.80;99.90
59075;DHT22;44860;53.020;6.738;2023-01-09T07:57:11;5.80;99.90
59075;DHT22;44860;53.020;6.738;2023-01-09T07:59:36;5.80;99.90
59075;DHT22;44860;53.020;6.738;2023-01-09T08:02:02;5.80;99.90
59075;DHT22;44860;53.020;6.738;2023-01-09T08:04:30;5.80;99.90
59075;DHT22;44860;53.020;6.738;2023-01-09T08:06:55;5.80;99.90
59075;DHT22;44860;53.020;6.738;2023-01-09T08:09:21;5.80;99.90
59075;DHT22;44860;53.020;6.738;2023-01-09T08:11:47;5.80;99.90
59075;DHT22;44860;53.020;6.738;2023-01-09T08:14:13;5.80;99.90
59075;DHT22;44860;53.020;6.738;2023-01-09T08:16:39;5.80;99.90
59075;DHT22;44860;53.020;6.738;2023-01-09T08:19:17;5.80;99.90
59075;DHT22;44860;53.020;6.738;2023-01-09T08:21:42;5.80;99.90
59075;DHT22;44860;53.020;6.738;2023-01-09T08:24:08;5.80;99.90
59075;DHT22;44860;53.020;6.738;2023-01-09T08:26:34;5.80;99.90
59075;DHT22;44860;53.020;6.738;2023-01-09T08:29:00;5.90;99.90
59075;DHT22;44860;53.020;6.738;2023-01-09T08:31:26;5.80;99.90
59075;DHT22;44860;53.020;6.738;2023-01-09T08:34:03;5.80;99.90
59075;DHT22;44860;53.020;6.738;2023-01-09T08:36:46;5.90;99.90
59075;DHT22;44860;53.020;6.738;2023-01-09T08:49:28;6.00;99.90
59075;DHT22;44860;53.020;6.738;2023-01-09T08:51:57;6.00;99.90
59075;DHT22;44860;53.020;6.738;2023-01-09T08:57:10;6.10;99.90
59075;DHT22;44860;53.020;6.738;2023-01-09T09:05:28;6.10;99.90
59075;DHT22;44860;53.020;6.738;2023-01-09T09:07:55;6.10;99.90
59075;DHT22;44860;53.020;6.738;2023-01-09T09:10:28;6.10;99.90
59075;DHT22;44860;53.020;6.738;2023-01-09T09:12:56;6.10;99.90
59075;DHT22;44860;53.020;6.738;2023-01-09T09:15:26;6.20;99.90
59075;DHT22;44860;53.020;6.738;2023-01-09T09:17:57;6.20;99.90
59075;DHT22;44860;53.020;6.738;2023-01-09T09:20:26;6.20;99.90
59075;DHT22;44860;53.020;6.738;2023-01-09T09:22:52;6.20;99.90
59075;DHT22;44860;53.020;6.738;2023-01-09T09:27:49;6.30;99.90
59075;DHT22;44860;53.020;6.738;2023-01-09T09:30:18;6.30;99.90
59075;DHT22;44860;53.020;6.738;2023-01-09T09:32:45;6.30;99.90
59075;DHT22;44860;53.020;6.738;2023-01-09T09:35:11;6.40;99.90
59075;DHT22;44860;53.020;6.738;2023-01-09T09:37:37;6.40;99.90
59075;DHT22;44860;53.020;6.738;2023-01-09T09:40:08;6.40;99.90
59075;DHT22;44860;53.020;6.738;2023-01-09T09:45:43;6.50;99.90
59075;DHT22;44860;53.020;6.738;2023-01-09T09:48:36;6.50;99.90
59075;DHT22;44860;53.020;6.738;2023-01-09T09:53:59;6.60;99.90
59075;DHT22;44860;53.020;6.738;2023-01-09T09:56:50;6.60;99.90
59075;DHT22;44860;53.020;6.738;2023-01-09T09:59:30;6.60;99.90
59075;DHT22;44860;53.020;6.738;2023-01-09T10:02:09;6.60;99.90
59075;DHT22;44860;53.020;6.738;2023-01-09T10:04:41;6.70;99.90
59075;DHT22;44860;53.020;6.738;2023-01-09T10:07:21;6.70;99.90
59075;DHT22;44860;53.020;6.738;2023-01-09T10:09:59;6.70;99.90
59075;DHT22;44860;53.020;6.738;2023-01-09T10:15:01;6.80;99.90
59075;DHT22;44860;53.020;6.738;2023-01-09T10:17:47;6.80;99.90
59075;DHT22;44860;53.020;6.738;2023-01-09T10:39:11;7.10;99.90
59075;DHT22;44860;53.020;6.738;2023-01-09T11:01:03;7.10;99.90
59075;DHT22;44860;53.020;6.738;2023-01-09T11:15:32;7.20;99.90
59075;DHT22;44860;53.020;6.738;2023-01-09T11:18:19;7.20;99.90
59075;DHT22;44860;53.020;6.738;2023-01-09T11:20:54;7.20;99.90
59075;DHT22;44860;53.020;6.738;2023-01-09T11:25:59;7.20;99.90
59075;DHT22;44860;53.020;6.738;2023-01-09T11:28:25;7.20;99.90
59075;DHT22;44860;53.020;6.738;2023-01-09T11:39:01;7.20;99.90
59075;DHT22;44860;53.020;6.738;2023-01-09T11:41:31;7.20;99.90
59075;DHT22;44860;53.020;6.738;2023-01-09T11:44:03;7.20;99.90
59075;DHT22;44860;53.020;6.738;2023-01-09T11:46:48;7.30;99.90
59075;DHT22;44860;53.020;6.738;2023-01-09T11:49:29;7.30;99.90
59075;DHT22;44860;53.020;6.738;2023-01-09T11:54:30;7.30;99.90
59075;DHT22;44860;53.020;6.738;2023-01-09T11:56:59;7.30;99.90
59075;DHT22;44860;53.020;6.738;2023-01-09T12:02:03;7.30;99.90
59075;DHT22;44860;53.020;6.738;2023-01-09T12:04:57;7.30;99.90
59075;DHT22;44860;53.020;6.738;2023-01-09T12:07:40;7.30;99.90
59075;DHT22;44860;53.020;6.738;2023-01-09T12:26:30;7.40;99.90
59075;DHT22;44860;53.020;6.738;2023-01-09T12:38:07;7.40;99.90
59075;DHT22;44860;53.020;6.738;2023-01-09T12:41:08;7.40;99.90
59075;DHT22;44860;53.020;6.738;2023-01-09T12:53:30;7.50;99.90
59075;DHT22;44860;53.020;6.738;2023-01-09T12:56:08;7.50;99.90
59075;DHT22;44860;53.020;6.738;2023-01-09T12:58:55;7.50;99.90
59075;DHT22;44860;53.020;6.738;2023-01-09T13:01:28;7.50;99.90
59075;DHT22;44860;53.020;6.738;2023-01-09T13:06:31;7.50;99.90
59075;DHT22;44860;53.020;6.738;2023-01-09T13:09:25;7.50;99.90
59075;DHT22;44860;53.020;6.738;2023-01-09T13:12:10;7.50;99.90
59075;DHT22;44860;53.020;6.738;2023-01-09T13:17:24;7.50;99.90
59075;DHT22;44860;53.020;6.738;2023-01-09T13:20:27;7.50;99.90
59075;DHT22;44860;53.020;6.738;2023-01-09T13:22:54;7.50;99.90
59075;DHT22;44860;53.020;6.738;2023-01-09T13:28:03;7.50;99.90
59075;DHT22;44860;53.020;6.738;2023-01-09T13:32:59;7.50;99.90
59075;DHT22;44860;53.020;6.738;2023-01-09T13:35:33;7.60;99.90
59075;DHT22;44860;53.020;6.738;2023-01-09T13:37:59;7.50;99.90
59075;DHT22;44860;53.020;6.738;2023-01-09T13:40:29;7.50;99.90
59075;DHT22;44860;53.020;6.738;2023-01-09T13:43:03;7.50;99.90
59075;DHT22;44860;53.020;6.738;2023-01-09T13:45:32;7.50;99.90
59075;DHT22;44860;53.020;6.738;2023-01-09T13:48:24;7.50;99.90
59075;DHT22;44860;53.020;6.738;2023-01-09T13:51:34;7.60;99.90
59075;DHT22;44860;53.020;6.738;2023-01-09T13:54:01;7.50;99.90
59075;DHT22;44860;53.020;6.738;2023-01-09T13:56:27;7.50;99.90
59075;DHT22;44860;53.020;6.738;2023-01-09T14:06:34;7.60;99.90
59075;DHT22;44860;53.020;6.738;2023-01-09T14:11:36;7.60;99.90
59075;DHT22;44860;53.020;6.738;2023-01-09T14:14:04;7.60;99.90
59075;DHT22;44860;53.020;6.738;2023-01-09T14:16:30;7.60;99.90
59075;DHT22;44860;53.020;6.738;2023-01-09T14:21:50;7.70;99.90
59075;DHT22;44860;53.020;6.738;2023-01-09T14:24:43;7.60;99.90
59075;DHT22;44860;53.020;6.738;2023-01-09T14:30:30;7.60;99.90
59075;DHT22;44860;53.020;6.738;2023-01-09T14:33:02;7.70;99.90
59075;DHT22;44860;53.020;6.738;2023-01-09T14:43:52;7.70;99.90
59075;DHT22;44860;53.020;6.738;2023-01-09T14:46:32;7.70;99.90
59075;DHT22;44860;53.020;6.738;2023-01-09T14:49:02;7.70;99.90
59075;DHT22;44860;53.020;6.738;2023-01-09T14:51:33;7.70;99.90
59075;DHT22;44860;53.020;6.738;2023-01-09T14:54:08;7.70;99.90
59075;DHT22;44860;53.020;6.738;2023-01-09T14:56:48;7.70;99.90
59075;DHT22;44860;53.020;6.738;2023-01-09T14:59:16;7.70;99.90
59075;DHT22;44860;53.020;6.738;2023-01-09T15:01:53;7.80;99.90
59075;DHT22;44860;53.020;6.738;2023-01-09T15:04:33;7.80;99.90
59075;DHT22;44860;53.020;6.738;2023-01-09T15:07:04;7.70;99.90
59075;DHT22;44860;53.020;6.738;2023-01-09T15:09:51;7.70;99.90
59075;DHT22;44860;53.020;6.738;2023-01-09T15:30:20;7.70;99.90
59075;DHT22;44860;53.020;6.738;2023-01-09T15:32:49;7.70;99.90
59075;DHT22;44860;53.020;6.738;2023-01-09T15:35:17;7.70;99.90
59075;DHT22;44860;53.020;6.738;2023-01-09T15:37:44;7.70;99.90
59075;DHT22;44860;53.020;6.738;2023-01-09T15:40:36;7.70;99.90
59075;DHT22;44860;53.020;6.738;2023-01-09T15:43:03;7.70;99.90
59075;DHT22;44860;53.020;6.738;2023-01-09T15:48:32;7.70;99.90
59075;DHT22;44860;53.020;6.738;2023-01-09T15:51:07;7.70;99.90
59075;DHT22;44860;53.020;6.738;2023-01-09T15:53:40;7.70;99.90
59075;DHT22;44860;53.020;6.738;2023-01-09T15:59:26;7.60;99.90
59075;DHT22;44860;53.020;6.738;2023-01-09T16:02:00;7.60;99.90
59075;DHT22;44860;53.020;6.738;2023-01-09T16:04:54;7.60;99.90
59075;DHT22;44860;53.020;6.738;2023-01-09T16:07:20;7.50;99.90
59075;DHT22;44860;53.020;6.738;2023-01-09T16:09:47;7.60;99.90
59075;DHT22;44860;53.020;6.738;2023-01-09T16:12:18;7.50;99.90
59075;DHT22;44860;53.020;6.738;2023-01-09T16:14:49;7.50;99.90
59075;DHT22;44860;53.020;6.738;2023-01-09T16:17:17;7.40;99.90
59075;DHT22;44860;53.020;6.738;2023-01-09T16:22:32;7.40;99.90
59075;DHT22;44860;53.020;6.738;2023-01-09T16:25:02;7.40;99.90
59075;DHT22;44860;53.020;6.738;2023-01-09T16:27:30;7.30;99.90
59075;DHT22;44860;53.020;6.738;2023-01-09T16:30:01;7.30;99.90
59075;DHT22;44860;53.020;6.738;2023-01-09T16:32:35;7.30;99.90
59075;DHT22;44860;53.020;6.738;2023-01-09T16:35:11;7.20;99.90
59075;DHT22;44860;53.020;6.738;2023-01-09T16:37:39;7.20;99.90
59075;DHT22;44860;53.020;6.738;2023-01-09T16:42:32;7.20;99.90
59075;DHT22;44860;53.020;6.738;2023-01-09T16:45:16;7.20;99.90
59075;DHT22;44860;53.020;6.738;2023-01-09T16:47:42;7.20;99.90
59075;DHT22;44860;53.020;6.738;2023-01-09T16:50:11;7.20;99.90
59075;DHT22;44860;53.020;6.738;2023-01-09T16:52:40;7.20;99.90
59075;DHT22;44860;53.020;6.738;2023-01-09T16:55:06;7.20;99.90
59075;DHT22;44860;53.020;6.738;2023-01-09T16:57:33;7.20;99.90
59075;DHT22;44860;53.020;6.738;2023-01-09T17:00:00;7.20;99.90
59075;DHT22;44860;53.020;6.738;2023-01-09T17:02:26;7.20;99.90
59075;DHT22;44860;53.020;6.738;2023-01-09T17:04:52;7.20;99.90
59075;DHT22;44860;53.020;6.738;2023-01-09T17:07:22;7.20;99.90
59075;DHT22;44860;53.020;6.738;2023-01-09T17:09:52;7.20;99.90
59075;DHT22;44860;53.020;6.738;2023-01-09T17:12:20;7.20;99.90
59075;DHT22;44860;53.020;6.738;2023-01-09T17:14:47;7.20;99.90
59075;DHT22;44860;53.020;6.738;2023-01-09T17:17:13;7.20;99.90
59075;DHT22;44860;53.020;6.738;2023-01-09T17:19:39;7.20;99.90
59075;DHT22;44860;53.020;6.738;2023-01-09T17:22:05;7.20;99.90
59075;DHT22;44860;53.020;6.738;2023-01-09T17:24:31;7.20;99.90
59075;DHT22;44860;53.020;6.738;2023-01-09T17:27:27;7.20;99.90
59075;DHT22;44860;53.020;6.738;2023-01-09T17:30:13;7.20;99.90
59075;DHT22;44860;53.020;6.738;2023-01-09T17:32:39;7.20;99.90
59075;DHT22;44860;53.020;6.738;2023-01-09T17:35:05;7.20;99.90
59075;DHT22;44860;53.020;6.738;2023-01-09T17:37:31;7.20;99.90
59075;DHT22;44860;53.020;6.738;2023-01-09T17:39:57;7.10;99.90
59075;DHT22;44860;53.020;6.738;2023-01-09T17:42:28;7.10;99.90
59075;DHT22;44860;53.020;6.738;2023-01-09T17:44:54;7.10;99.90
59075;DHT22;44860;53.020;6.738;2023-01-09T17:47:21;7.10;99.90
59075;DHT22;44860;53.020;6.738;2023-01-09T17:49:47;7.10;99.90
59075;DHT22;44860;53.020;6.738;2023-01-09T17:52:13;7.10;99.90
59075;DHT22;44860;53.020;6.738;2023-01-09T17:54:39;7.10;99.90
59075;DHT22;44860;53.020;6.738;2023-01-09T17:57:05;7.10;99.90
59075;DHT22;44860;53.020;6.738;2023-01-09T17:59:32;7.10;99.90
59075;DHT22;44860;53.020;6.738;2023-01-09T18:01:57;7.10;99.90
59075;DHT22;44860;53.020;6.738;2023-01-09T18:04:23;7.10;99.90
59075;DHT22;44860;53.020;6.738;2023-01-09T18:06:49;7.10;99.90
59075;DHT22;44860;53.020;6.738;2023-01-09T18:09:16;7.10;99.90
59075;DHT22;44860;53.020;6.738;2023-01-09T18:11:44;7.00;99.90
59075;DHT22;44860;53.020;6.738;2023-01-09T18:14:11;7.00;99.90
59075;DHT22;44860;53.020;6.738;2023-01-09T18:16:37;7.00;99.90
59075;DHT22;44860;53.020;6.738;2023-01-09T18:19:03;7.00;99.90
59075;DHT22;44860;53.020;6.738;2023-01-09T18:21:29;7.00;99.90
59075;DHT22;44860;53.020;6.738;2023-01-09T18:23:56;7.00;99.90
59075;DHT22;44860;53.020;6.738;2023-01-09T18:26:22;7.00;99.90
59075;DHT22;44860;53.020;6.738;2023-01-09T18:28:58;7.00;99.90
59075;DHT22;44860;53.020;6.738;2023-01-09T18:31:28;7.00;99.90
59075;DHT22;44860;53.020;6.738;2023-01-09T18:33:55;7.00;99.90
59075;DHT22;44860;53.020;6.738;2023-01-09T18:36:24;6.90;99.90
59075;DHT22;44860;53.020;6.738;2023-01-09T18:38:54;6.90;99.90
59075;DHT22;44860;53.020;6.738;2023-01-09T18:41:21;6.90;99.90
59075;DHT22;44860;53.020;6.738;2023-01-09T18:43:51;6.90;99.90
59075;DHT22;44860;53.020;6.738;2023-01-09T18:46:17;6.90;99.90
59075;DHT22;44860;53.020;6.738;2023-01-09T18:51:25;6.90;99.90
59075;DHT22;44860;53.020;6.738;2023-01-09T18:53:51;6.90;99.90
59075;DHT22;44860;53.020;6.738;2023-01-09T18:56:18;6.90;99.90
59075;DHT22;44860;53.020;6.738;2023-01-09T18:58:45;6.80;99.90
59075;DHT22;44860;53.020;6.738;2023-01-09T19:01:12;6.80;99.90
59075;DHT22;44860;53.020;6.738;2023-01-09T19:03:42;6.80;99.90
59075;DHT22;44860;53.020;6.738;2023-01-09T19:06:08;6.70;99.90
59075;DHT22;44860;53.020;6.738;2023-01-09T19:08:34;6.70;99.90
59075;DHT22;44860;53.020;6.738;2023-01-09T19:11:01;6.70;99.90
59075;DHT22;44860;53.020;6.738;2023-01-09T19:13:31;6.70;99.90
59075;DHT22;44860;53.020;6.738;2023-01-09T19:15:58;6.70;99.90
59075;DHT22;44860;53.020;6.738;2023-01-09T19:18:24;6.70;99.90
59075;DHT22;44860;53.020;6.738;2023-01-09T19:20:51;6.70;99.90
59075;DHT22;44860;53.020;6.738;2023-01-09T19:23:18;6.60;99.90
59075;DHT22;44860;53.020;6.738;2023-01-09T19:25:45;6.60;99.90
59075;DHT22;44860;53.020;6.738;2023-01-09T19:28:11;6.70;99.90
59075;DHT22;44860;53.020;6.738;2023-01-09T19:30:37;6.60;99.90
59075;DHT22;44860;53.020;6.738;2023-01-09T19:33:03;6.60;99.90
59075;DHT22;44860;53.020;6.738;2023-01-09T19:35:30;6.60;99.90
59075;DHT22;44860;53.020;6.738;2023-01-09T19:37:56;6.60;99.90
59075;DHT22;44860;53.020;6.738;2023-01-09T19:40:22;6.60;99.90
59075;DHT22;44860;53.020;6.738;2023-01-09T19:42:52;6.60;99.90
59075;DHT22;44860;53.020;6.738;2023-01-09T19:45:18;6.50;99.90
59075;DHT22;44860;53.020;6.738;2023-01-09T19:47:43;6.50;99.90